createdAt,value
2018-11-04T00:00:45.184Z,3.46
2018-11-04T00:01:45.214Z,3.47
2018-11-04T00:02:45.115Z,3.47
2018-11-04T00:03:45.079Z,3.47
2018-11-04T00:04:45.049Z,3.44
2018-11-04T00:05:45.014Z,3.43
2018-11-04T00:06:44.977Z,3.50
2018-11-04T00:07:44.975Z,3.49
2018-11-04T00:08:44.911Z,3.40
2018-11-04T00:09:44.877Z,3.33
2018-11-04T00:10:44.842Z,3.49
2018-11-04T00:11:44.806Z,3.53
2018-11-04T00:12:44.774Z,3.47
2018-11-04T00:13:44.739Z,3.58
2018-11-04T00:14:44.706Z,3.57
2018-11-04T00:15:44.670Z,3.61
2018-11-04T00:16:44.637Z,3.53
2018-11-04T00:17:44.602Z,3.61
2018-11-04T00:18:44.567Z,3.58
2018-11-04T00:19:44.534Z,3.52
2018-11-04T00:20:44.498Z,3.58
2018-11-04T00:21:44.464Z,3.57
2018-11-04T00:22:44.437Z,3.62
2018-11-04T00:23:44.395Z,3.58
2018-11-04T00:24:44.363Z,3.54
2018-11-04T00:25:44.328Z,3.58
2018-11-04T00:26:44.341Z,3.52
2018-11-04T00:27:44.259Z,3.58
2018-11-04T00:28:44.225Z,3.47
2018-11-04T00:29:44.237Z,3.49
2018-11-04T00:30:44.161Z,3.47
2018-11-04T00:31:44.121Z,3.40
2018-11-04T00:32:44.094Z,3.34
2018-11-04T00:33:44.053Z,3.28
2018-11-04T00:34:44.069Z,3.33
2018-11-04T00:35:43.985Z,3.30
2018-11-04T00:36:43.950Z,3.36
2018-11-04T00:37:43.918Z,3.30
2018-11-04T00:38:43.882Z,3.28
2018-11-04T00:39:43.846Z,3.36
2018-11-04T00:40:43.814Z,3.20
2018-11-04T00:41:43.779Z,3.20
2018-11-04T00:42:43.744Z,3.23
2018-11-04T00:43:43.709Z,3.28
2018-11-04T00:44:43.676Z,3.28
2018-11-04T00:45:43.644Z,3.28
2018-11-04T00:46:43.607Z,3.33
2018-11-04T00:47:43.573Z,3.21
2018-11-04T00:48:43.538Z,3.31
2018-11-04T00:49:43.505Z,3.27
2018-11-04T00:50:43.469Z,3.44
2018-11-04T00:51:43.434Z,3.30
2018-11-04T00:52:43.403Z,3.39
2018-11-04T00:53:43.371Z,3.33
2018-11-04T00:54:43.333Z,3.27
2018-11-04T00:55:43.299Z,3.31
2018-11-04T00:56:43.263Z,3.34
2018-11-04T00:57:43.228Z,3.30
2018-11-04T00:58:43.195Z,3.39
2018-11-04T00:59:43.160Z,3.39
2018-11-04T01:00:43.127Z,3.42
2018-11-04T01:01:43.093Z,3.40
2018-11-04T01:02:43.059Z,3.36
2018-11-04T01:03:43.024Z,3.39
2018-11-04T01:04:42.989Z,3.36
2018-11-04T01:05:42.955Z,3.42
2018-11-04T01:06:42.919Z,3.43
2018-11-04T01:07:42.886Z,3.39
2018-11-04T01:08:42.853Z,3.42
2018-11-04T01:09:42.817Z,3.36
2018-11-04T01:10:42.782Z,3.36
2018-11-04T01:11:42.748Z,3.40
2018-11-04T01:12:42.713Z,3.42
2018-11-04T01:13:42.681Z,3.33
2018-11-04T01:14:42.645Z,3.39
2018-11-04T01:15:42.611Z,3.23
2018-11-04T01:16:42.576Z,3.27
2018-11-04T01:17:42.543Z,3.24
2018-11-04T01:18:42.508Z,3.21
2018-11-04T01:19:42.474Z,3.24
2018-11-04T01:20:42.440Z,3.24
2018-11-04T01:21:42.404Z,3.27
2018-11-04T01:22:42.378Z,3.28
2018-11-04T01:23:42.336Z,3.15
2018-11-04T01:24:43.076Z,3.13
2018-11-04T01:25:42.267Z,3.20
2018-11-04T01:26:42.232Z,3.10
2018-11-04T01:27:42.198Z,3.13
2018-11-04T01:28:42.164Z,3.23
2018-11-04T01:29:42.130Z,3.25
2018-11-04T01:30:42.094Z,3.33
2018-11-04T01:31:42.060Z,3.23
2018-11-04T01:32:42.033Z,3.23
2018-11-04T01:33:41.990Z,3.24
2018-11-04T01:34:41.958Z,3.28
2018-11-04T01:35:41.923Z,3.34
2018-11-04T01:36:41.887Z,3.31
2018-11-04T01:37:41.853Z,3.30
2018-11-04T01:38:41.818Z,3.34
2018-11-04T01:39:41.785Z,3.31
2018-11-04T01:40:41.750Z,3.40
2018-11-04T01:41:41.716Z,3.36
2018-11-04T01:42:41.684Z,3.36
2018-11-04T01:43:41.646Z,3.39
2018-11-04T01:44:41.613Z,3.40
2018-11-04T01:45:41.576Z,3.42
2018-11-04T01:46:41.543Z,3.28
2018-11-04T01:47:41.508Z,3.30
2018-11-04T01:48:41.473Z,3.36
2018-11-04T01:49:41.439Z,3.31
2018-11-04T01:50:41.402Z,3.30
2018-11-04T01:51:41.371Z,3.36
2018-11-04T01:52:41.340Z,3.28
2018-11-04T01:53:41.301Z,3.34
2018-11-04T01:54:41.266Z,3.40
2018-11-04T01:55:41.233Z,3.33
2018-11-04T01:56:41.196Z,3.31
2018-11-04T01:57:41.163Z,3.25
2018-11-04T01:58:41.131Z,3.16
2018-11-04T01:59:41.094Z,3.39
2018-11-04T02:00:41.059Z,3.31
2018-11-04T02:01:41.026Z,3.27
2018-11-04T02:02:40.990Z,3.24
2018-11-04T02:03:40.956Z,3.21
2018-11-04T02:04:40.921Z,3.33
2018-11-04T02:05:40.888Z,3.21
2018-11-04T02:06:40.851Z,3.25
2018-11-04T02:07:40.818Z,3.24
2018-11-04T02:08:40.784Z,3.30
2018-11-04T02:09:40.749Z,3.30
2018-11-04T02:10:40.715Z,3.28
2018-11-04T02:11:40.686Z,3.20
2018-11-04T02:12:40.646Z,3.21
2018-11-04T02:13:40.610Z,3.28
2018-11-04T02:14:40.575Z,3.12
2018-11-04T02:15:40.542Z,3.31
2018-11-04T02:16:40.509Z,3.31
2018-11-04T02:17:40.474Z,3.33
2018-11-04T02:18:40.439Z,3.31
2018-11-04T02:19:40.402Z,3.23
2018-11-04T02:20:40.368Z,3.24
2018-11-04T02:21:40.335Z,3.36
2018-11-04T02:22:40.301Z,3.18
2018-11-04T02:23:40.266Z,3.28
2018-11-04T02:24:40.232Z,3.21
2018-11-04T02:25:40.198Z,3.27
2018-11-04T02:26:40.163Z,3.20
2018-11-04T02:27:40.129Z,3.36
2018-11-04T02:28:40.095Z,3.16
2018-11-04T02:29:40.582Z,3.27
2018-11-04T02:30:40.024Z,3.24
2018-11-04T02:31:39.990Z,3.24
2018-11-04T02:32:39.957Z,3.28
2018-11-04T02:33:39.919Z,3.23
2018-11-04T02:34:39.889Z,3.21
2018-11-04T02:35:39.854Z,3.31
2018-11-04T02:36:39.816Z,3.20
2018-11-04T02:37:39.783Z,3.31
2018-11-04T02:38:39.748Z,3.31
2018-11-04T02:39:39.713Z,3.39
2018-11-04T02:40:39.679Z,3.42
2018-11-04T02:41:39.649Z,3.43
2018-11-04T02:42:39.607Z,3.43
2018-11-04T02:43:39.575Z,3.50
2018-11-04T02:44:39.542Z,3.47
2018-11-04T02:45:39.510Z,3.47
2018-11-04T02:46:39.478Z,3.50
2018-11-04T02:47:39.439Z,3.57
2018-11-04T02:48:39.402Z,3.50
2018-11-04T02:49:39.368Z,3.47
2018-11-04T02:50:39.334Z,3.50
2018-11-04T02:51:39.304Z,3.57
2018-11-04T02:52:39.267Z,3.54
2018-11-04T02:53:39.234Z,3.54
2018-11-04T02:54:39.207Z,3.57
2018-11-04T02:55:39.163Z,3.49
2018-11-04T02:56:39.128Z,3.54
2018-11-04T02:57:39.094Z,3.46
2018-11-04T02:58:39.062Z,3.58
2018-11-04T02:59:39.022Z,3.58
2018-11-04T03:00:38.989Z,3.53
2018-11-04T03:01:38.984Z,3.57
2018-11-04T03:02:38.920Z,3.53
2018-11-04T03:03:38.888Z,3.60
2018-11-04T03:04:38.854Z,3.79
2018-11-04T03:05:38.818Z,3.78
2018-11-04T03:06:38.785Z,3.71
2018-11-04T03:07:38.751Z,3.88
2018-11-04T03:08:38.715Z,3.82
2018-11-04T03:09:38.683Z,3.82
2018-11-04T03:10:38.647Z,3.83
2018-11-04T03:11:38.614Z,3.86
2018-11-04T03:12:38.577Z,3.83
2018-11-04T03:13:38.546Z,3.88
2018-11-04T03:14:38.509Z,3.96
2018-11-04T03:15:38.475Z,4.03
2018-11-04T03:16:38.441Z,4.10
2018-11-04T03:17:38.408Z,4.12
2018-11-04T03:18:38.373Z,4.15
2018-11-04T03:19:38.340Z,4.22
2018-11-04T03:20:38.304Z,4.28
2018-11-04T03:21:38.270Z,4.26
2018-11-04T03:22:38.238Z,4.33
2018-11-04T03:23:38.202Z,4.37
2018-11-04T03:24:38.195Z,4.43
2018-11-04T03:25:38.134Z,4.29
2018-11-04T03:26:38.101Z,4.25
2018-11-04T03:27:38.066Z,4.26
2018-11-04T03:28:38.032Z,4.28
2018-11-04T03:29:37.998Z,4.39
2018-11-04T03:30:37.964Z,4.40
2018-11-04T03:31:37.931Z,4.43
2018-11-04T03:32:37.906Z,4.39
2018-11-04T03:33:37.862Z,4.43
2018-11-04T03:34:37.827Z,4.44
2018-11-04T03:35:37.794Z,4.51
2018-11-04T03:36:37.760Z,4.57
2018-11-04T03:37:37.722Z,4.64
2018-11-04T03:38:37.691Z,4.67
2018-11-04T03:39:37.661Z,4.64
2018-11-04T03:40:37.624Z,4.77
2018-11-04T03:41:37.590Z,4.69
2018-11-04T03:42:37.556Z,4.83
2018-11-04T03:43:37.522Z,4.88
2018-11-04T03:44:37.488Z,4.88
2018-11-04T03:45:37.455Z,4.99
2018-11-04T03:46:37.420Z,5.05
2018-11-04T03:47:37.388Z,5.09
2018-11-04T03:48:37.354Z,5.16
2018-11-04T03:49:37.319Z,5.16
2018-11-04T03:50:37.285Z,5.30
2018-11-04T03:51:37.252Z,5.31
2018-11-04T03:52:37.220Z,5.41
2018-11-04T03:53:37.186Z,5.35
2018-11-04T03:54:37.152Z,5.43
2018-11-04T03:55:37.119Z,5.48
2018-11-04T03:56:37.085Z,5.57
2018-11-04T03:57:37.053Z,5.52
2018-11-04T03:58:37.018Z,5.70
2018-11-04T03:59:36.984Z,5.74
2018-11-04T04:00:36.952Z,5.78
2018-11-04T04:01:36.918Z,5.88
2018-11-04T04:02:36.883Z,5.93
2018-11-04T04:03:36.851Z,5.96
2018-11-04T04:04:36.819Z,6.04
2018-11-04T04:05:36.785Z,6.04
2018-11-04T04:06:36.756Z,6.06
2018-11-04T04:07:36.719Z,6.19
2018-11-04T04:08:36.688Z,6.16
2018-11-04T04:09:36.654Z,6.25
2018-11-04T04:10:36.623Z,6.28
2018-11-04T04:11:36.587Z,6.33
2018-11-04T04:12:36.557Z,6.40
2018-11-04T04:13:36.521Z,6.36
2018-11-04T04:14:36.487Z,6.32
2018-11-04T04:15:36.457Z,6.36
2018-11-04T04:16:36.422Z,6.38
2018-11-04T04:17:36.390Z,6.43
2018-11-04T04:18:36.358Z,6.46
2018-11-04T04:19:36.325Z,6.46
2018-11-04T04:20:36.294Z,6.46
2018-11-04T04:21:36.259Z,6.44
2018-11-04T04:22:36.228Z,6.48
2018-11-04T04:23:36.193Z,6.40
2018-11-04T04:24:36.165Z,6.53
2018-11-04T04:25:36.128Z,6.46
2018-11-04T04:26:36.120Z,6.51
2018-11-04T04:27:36.063Z,6.43
2018-11-04T04:28:36.030Z,6.41
2018-11-04T04:29:35.999Z,6.48
2018-11-04T04:30:35.967Z,6.47
2018-11-04T04:31:35.934Z,6.51
2018-11-04T04:32:35.901Z,6.47
2018-11-04T04:33:35.868Z,6.50
2018-11-04T04:34:35.835Z,6.56
2018-11-04T04:35:35.802Z,6.48
2018-11-04T04:36:35.772Z,6.44
2018-11-04T04:37:35.737Z,6.51
2018-11-04T04:38:35.706Z,6.46
2018-11-04T04:39:35.673Z,6.44
2018-11-04T04:40:35.640Z,6.53
2018-11-04T04:41:35.609Z,6.50
2018-11-04T04:42:35.576Z,6.50
2018-11-04T04:43:35.543Z,6.58
2018-11-04T04:44:35.511Z,6.58
2018-11-04T04:45:35.478Z,6.56
2018-11-04T04:46:35.444Z,6.48
2018-11-04T04:47:35.417Z,6.48
2018-11-04T04:48:35.381Z,6.47
2018-11-04T04:49:35.349Z,6.48
2018-11-04T04:50:35.317Z,6.43
2018-11-04T04:51:35.282Z,6.43
2018-11-04T04:52:35.255Z,6.47
2018-11-04T04:53:35.218Z,6.58
2018-11-04T04:54:35.187Z,6.51
2018-11-04T04:55:35.154Z,6.56
2018-11-04T04:56:35.120Z,6.51
2018-11-04T04:57:35.089Z,6.51
2018-11-04T04:58:35.056Z,6.50
2018-11-04T04:59:35.023Z,6.51
2018-11-04T05:00:34.992Z,6.43
2018-11-04T05:01:34.959Z,6.46
2018-11-04T05:02:34.926Z,6.48
2018-11-04T05:03:34.893Z,6.56
2018-11-04T05:04:34.861Z,6.50
2018-11-04T05:05:34.830Z,6.47
2018-11-04T05:06:34.830Z,6.51
2018-11-04T05:07:34.763Z,6.51
2018-11-04T05:08:34.732Z,6.59
2018-11-04T05:09:34.705Z,6.54
2018-11-04T05:10:34.666Z,6.63
2018-11-04T05:11:34.633Z,6.58
2018-11-04T05:12:34.603Z,6.61
2018-11-04T05:13:34.571Z,6.69
2018-11-04T05:14:34.539Z,6.62
2018-11-04T05:15:34.505Z,6.68
2018-11-04T05:16:34.473Z,6.71
2018-11-04T05:17:34.440Z,6.65
2018-11-04T05:18:34.408Z,6.62
2018-11-04T05:19:34.374Z,6.66
2018-11-04T05:20:34.343Z,6.53
2018-11-04T05:21:34.312Z,6.63
2018-11-04T05:22:34.279Z,6.65
2018-11-04T05:23:34.246Z,6.66
2018-11-04T05:24:34.215Z,6.66
2018-11-04T05:25:34.184Z,6.65
2018-11-04T05:26:34.149Z,6.61
2018-11-04T05:27:34.116Z,6.69
2018-11-04T05:28:34.086Z,6.65
2018-11-04T05:29:34.053Z,6.62
2018-11-04T05:30:34.023Z,6.63
2018-11-04T05:31:33.988Z,6.68
2018-11-04T05:32:33.956Z,6.68
2018-11-04T05:33:33.924Z,6.71
2018-11-04T05:34:33.890Z,6.66
2018-11-04T05:35:33.858Z,6.63
2018-11-04T05:36:33.828Z,6.65
2018-11-04T05:37:33.795Z,6.77
2018-11-04T05:38:33.762Z,6.63
2018-11-04T05:39:33.729Z,6.77
2018-11-04T05:40:33.698Z,6.72
2018-11-04T05:41:33.666Z,6.66
2018-11-04T05:42:33.634Z,6.77
2018-11-04T05:43:33.607Z,6.72
2018-11-04T05:44:33.568Z,6.81
2018-11-04T05:45:33.540Z,6.79
2018-11-04T05:46:33.503Z,6.73
2018-11-04T05:47:33.474Z,6.77
2018-11-04T05:48:33.443Z,6.73
2018-11-04T05:49:33.408Z,6.80
2018-11-04T05:50:33.378Z,6.77
2018-11-04T05:51:33.345Z,6.77
2018-11-04T05:52:33.318Z,6.72
2018-11-04T05:53:33.280Z,6.79
2018-11-04T05:54:33.247Z,6.77
2018-11-04T05:55:33.215Z,6.83
2018-11-04T05:56:33.183Z,6.86
2018-11-04T05:57:33.152Z,6.80
2018-11-04T05:58:33.117Z,6.81
2018-11-04T05:59:33.085Z,6.77
2018-11-04T06:00:33.054Z,6.80
2018-11-04T06:01:40.438Z,6.80
2018-11-04T06:03:29.220Z,6.79
2018-11-04T06:04:26.080Z,6.71
2018-11-04T06:06:18.901Z,6.62
2018-11-04T06:07:19.480Z,6.77
2018-11-04T06:09:11.643Z,6.73
2018-11-04T06:10:11.604Z,6.69
2018-11-04T06:12:04.428Z,6.76
2018-11-04T06:13:04.370Z,6.77
2018-11-04T06:14:57.168Z,6.77
2018-11-04T06:15:57.131Z,6.69
2018-11-04T06:17:50.461Z,6.73
2018-11-04T06:18:50.393Z,6.65
2018-11-04T06:20:43.488Z,6.79
2018-11-04T06:21:43.449Z,6.77
2018-11-04T06:23:36.268Z,6.77
2018-11-04T06:24:36.212Z,6.77
2018-11-04T06:26:29.033Z,6.79
2018-11-04T06:27:28.976Z,6.80
2018-11-04T06:29:21.776Z,6.79
2018-11-04T06:30:21.745Z,6.80
2018-11-04T06:32:14.557Z,6.73
2018-11-04T06:33:14.506Z,6.86
2018-11-04T06:35:07.308Z,6.80
2018-11-04T06:36:07.269Z,6.83
2018-11-04T06:38:00.384Z,6.94
2018-11-04T06:39:00.325Z,6.84
2018-11-04T06:40:53.484Z,6.81
2018-11-04T06:41:53.383Z,6.95
2018-11-04T06:43:46.475Z,6.90
2018-11-04T06:44:46.440Z,6.91
2018-11-04T06:46:39.262Z,7.04
2018-11-04T06:47:39.282Z,6.99
2018-11-04T06:49:32.007Z,7.02
2018-11-04T06:50:31.968Z,7.09
2018-11-04T06:52:25.148Z,7.13
2018-11-04T06:53:25.081Z,7.19
2018-11-04T06:55:17.882Z,7.31
2018-11-04T06:56:17.846Z,7.34
2018-11-04T06:58:10.669Z,7.35
2018-11-04T06:59:10.611Z,7.40
2018-11-04T07:01:03.453Z,7.42
2018-11-04T07:02:03.375Z,7.35
2018-11-04T07:03:03.344Z,7.50
2018-11-04T07:04:03.315Z,7.40
2018-11-04T07:05:03.284Z,7.42
2018-11-04T07:06:03.248Z,7.50
2018-11-04T07:07:03.218Z,7.56
2018-11-04T07:08:03.186Z,7.53
2018-11-04T07:09:03.195Z,7.56
2018-11-04T07:10:03.124Z,7.56
2018-11-04T07:11:03.091Z,7.53
2018-11-04T07:12:03.060Z,7.63
2018-11-04T07:13:03.038Z,7.74
2018-11-04T07:14:03.003Z,7.66
2018-11-04T07:15:02.966Z,7.67
2018-11-04T07:16:02.934Z,7.78
2018-11-04T07:17:02.903Z,7.75
2018-11-04T07:18:02.872Z,7.79
2018-11-04T07:19:02.840Z,7.89
2018-11-04T07:20:02.904Z,7.87
2018-11-04T07:21:02.777Z,7.85
2018-11-04T07:22:02.748Z,7.92
2018-11-04T07:23:02.717Z,7.94
2018-11-04T07:24:02.684Z,7.87
2018-11-04T07:25:02.652Z,8.02
2018-11-04T07:26:02.621Z,8.07
2018-11-04T07:27:02.590Z,8.07
2018-11-04T07:28:02.559Z,8.04
2018-11-04T07:29:02.529Z,8.00
2018-11-04T07:30:02.500Z,8.04
2018-11-04T07:31:02.464Z,8.14
2018-11-04T07:32:02.510Z,8.18
2018-11-04T07:33:02.404Z,8.17
2018-11-04T07:34:02.371Z,8.15
2018-11-04T07:35:02.344Z,8.18
2018-11-04T07:36:02.319Z,8.22
2018-11-04T07:37:02.279Z,8.18
2018-11-04T07:38:02.248Z,8.17
2018-11-04T07:39:02.218Z,8.22
2018-11-04T07:40:02.194Z,8.25
2018-11-04T07:41:02.157Z,8.32
2018-11-04T07:42:02.125Z,8.30
2018-11-04T07:43:02.094Z,8.29
2018-11-04T07:44:02.078Z,8.36
2018-11-04T07:45:02.032Z,8.35
2018-11-04T07:46:02.003Z,8.42
2018-11-04T07:47:01.970Z,8.44
2018-11-04T07:48:01.945Z,8.42
2018-11-04T07:49:01.912Z,8.45
2018-11-04T07:50:01.876Z,8.40
2018-11-04T07:51:01.848Z,8.35
2018-11-04T07:52:01.818Z,8.42
2018-11-04T07:53:01.786Z,8.42
2018-11-04T07:54:01.755Z,8.32
2018-11-04T07:55:01.724Z,8.40
2018-11-04T07:56:01.693Z,8.33
2018-11-04T07:57:01.744Z,8.33
2018-11-04T07:58:01.632Z,8.35
2018-11-04T07:59:01.602Z,8.33
2018-11-04T08:00:01.573Z,8.36
2018-11-04T08:01:01.663Z,8.37
2018-11-04T08:02:01.509Z,8.47
2018-11-04T08:03:01.480Z,8.39
2018-11-04T08:04:01.525Z,8.42
2018-11-04T08:05:01.416Z,8.48
2018-11-04T08:06:01.386Z,8.55
2018-11-04T08:07:01.354Z,8.53
2018-11-04T08:08:01.325Z,8.65
2018-11-04T08:09:01.299Z,8.60
2018-11-04T08:10:01.262Z,8.68
2018-11-04T08:11:01.236Z,8.66
2018-11-04T08:12:01.201Z,8.72
2018-11-04T08:13:01.179Z,8.72
2018-11-04T08:14:01.142Z,8.83
2018-11-04T08:15:01.112Z,8.78
2018-11-04T08:16:01.079Z,8.79
2018-11-04T08:17:01.047Z,8.90
2018-11-04T08:18:01.021Z,8.86
2018-11-04T08:19:00.988Z,8.79
2018-11-04T08:20:00.957Z,8.75
2018-11-04T08:21:00.928Z,8.96
2018-11-04T08:22:00.896Z,8.93
2018-11-04T08:23:00.865Z,9.09
2018-11-04T08:24:00.837Z,9.05
2018-11-04T08:25:00.807Z,9.09
2018-11-04T08:26:00.777Z,9.09
2018-11-04T08:27:00.744Z,9.04
2018-11-04T08:28:00.717Z,9.02
2018-11-04T08:29:00.682Z,9.04
2018-11-04T08:30:00.651Z,9.15
2018-11-04T08:31:00.621Z,9.09
2018-11-04T08:32:00.592Z,9.18
2018-11-04T08:33:00.566Z,9.12
2018-11-04T08:34:00.532Z,9.20
2018-11-04T08:35:01.028Z,9.24
2018-11-04T08:36:00.469Z,9.32
2018-11-04T08:37:00.440Z,9.21
2018-11-04T08:38:00.410Z,9.24
2018-11-04T08:39:00.379Z,9.25
2018-11-04T08:40:00.502Z,9.31
2018-11-04T08:41:00.319Z,9.12
2018-11-04T08:42:00.289Z,9.25
2018-11-04T08:43:00.261Z,9.23
2018-11-04T08:44:00.233Z,9.23
2018-11-04T08:45:00.201Z,9.20
2018-11-04T08:46:00.172Z,9.28
2018-11-04T08:47:00.139Z,9.24
2018-11-04T08:48:00.110Z,9.25
2018-11-04T08:49:00.080Z,9.21
2018-11-04T08:50:00.049Z,9.30
2018-11-04T08:51:00.019Z,9.31
2018-11-04T08:51:59.991Z,9.38
2018-11-04T08:53:00.526Z,9.42
2018-11-04T08:53:59.927Z,9.35
2018-11-04T08:54:59.898Z,9.40
2018-11-04T08:55:59.869Z,9.32
2018-11-04T08:56:59.840Z,9.39
2018-11-04T08:57:59.809Z,9.35
2018-11-04T08:58:59.779Z,9.49
2018-11-04T09:00:00.573Z,9.50
2018-11-04T09:00:59.719Z,9.48
2018-11-04T09:01:59.689Z,9.61
2018-11-04T09:02:59.660Z,9.63
2018-11-04T09:03:59.629Z,9.63
2018-11-04T09:04:59.599Z,9.61
2018-11-04T09:05:59.570Z,9.56
2018-11-04T09:06:59.539Z,9.46
2018-11-04T09:07:59.511Z,9.60
2018-11-04T09:08:59.479Z,9.56
2018-11-04T09:09:59.448Z,9.66
2018-11-04T09:10:59.419Z,9.66
2018-11-04T09:11:59.390Z,9.64
2018-11-04T09:12:59.361Z,9.73
2018-11-04T09:13:59.333Z,9.78
2018-11-04T09:14:59.300Z,9.71
2018-11-04T09:15:59.272Z,9.66
2018-11-04T09:16:59.243Z,9.76
2018-11-04T09:17:59.211Z,9.70
2018-11-04T09:18:59.181Z,9.71
2018-11-04T09:19:59.151Z,9.76
2018-11-04T09:20:59.123Z,9.78
2018-11-04T09:21:59.226Z,9.76
2018-11-04T09:22:59.063Z,9.75
2018-11-04T09:23:59.032Z,9.73
2018-11-04T09:24:59.009Z,9.78
2018-11-04T09:25:58.972Z,9.79
2018-11-04T09:26:58.945Z,9.86
2018-11-04T09:27:58.913Z,9.82
2018-11-04T09:28:58.950Z,9.75
2018-11-04T09:29:58.854Z,9.91
2018-11-04T09:30:58.825Z,9.94
2018-11-04T09:31:58.794Z,9.83
2018-11-04T09:32:58.765Z,9.83
2018-11-04T09:33:58.734Z,9.94
2018-11-04T09:34:58.781Z,9.82
2018-11-04T09:35:58.717Z,9.94
2018-11-04T09:36:58.648Z,9.89
2018-11-04T09:37:58.617Z,9.82
2018-11-04T09:38:58.588Z,9.89
2018-11-04T09:39:58.557Z,9.76
2018-11-04T09:40:58.528Z,9.76
2018-11-04T09:41:58.496Z,9.93
2018-11-04T09:42:58.469Z,9.88
2018-11-04T09:43:58.438Z,9.99
2018-11-04T09:44:58.414Z,9.91
2018-11-04T09:45:58.378Z,9.97
2018-11-04T09:46:58.350Z,9.97
2018-11-04T09:47:58.322Z,9.86
2018-11-04T09:48:58.292Z,9.93
2018-11-04T09:49:58.311Z,9.96
2018-11-04T09:50:58.231Z,9.91
2018-11-04T09:51:58.203Z,9.99
2018-11-04T09:52:58.173Z,10.04
2018-11-04T09:53:58.144Z,10.04
2018-11-04T09:54:58.114Z,9.97
2018-11-04T09:55:58.084Z,9.99
2018-11-04T09:56:58.053Z,10.03
2018-11-04T09:57:58.025Z,10.04
2018-11-04T09:58:57.992Z,10.01
2018-11-04T09:59:57.964Z,9.94
2018-11-04T10:00:57.935Z,9.93
2018-11-04T10:01:58.538Z,9.97
2018-11-04T10:02:57.875Z,9.97
2018-11-04T10:03:57.846Z,10.04
2018-11-04T10:04:57.818Z,10.06
2018-11-04T10:05:57.785Z,10.12
2018-11-04T10:06:57.773Z,10.03
2018-11-04T10:07:57.729Z,10.06
2018-11-04T10:08:57.700Z,10.10
2018-11-04T10:09:57.669Z,10.10
2018-11-04T10:10:57.639Z,10.15
2018-11-04T10:11:57.612Z,10.10
2018-11-04T10:12:57.579Z,10.12
2018-11-04T10:13:57.553Z,10.15
2018-11-04T10:14:57.519Z,10.21
2018-11-04T10:15:57.493Z,10.17
2018-11-04T10:16:57.460Z,10.18
2018-11-04T10:17:57.432Z,10.15
2018-11-04T10:18:57.436Z,10.21
2018-11-04T10:19:57.639Z,10.18
2018-11-04T10:20:57.708Z,10.17
2018-11-04T10:21:57.320Z,10.24
2018-11-04T10:22:57.288Z,10.17
2018-11-04T10:23:57.256Z,10.15
2018-11-04T10:24:57.227Z,10.06
2018-11-04T10:25:57.198Z,9.99
2018-11-04T10:26:57.167Z,9.99
2018-11-04T10:27:57.137Z,10.06
2018-11-04T10:28:57.109Z,10.15
2018-11-04T10:29:57.078Z,10.15
2018-11-04T10:30:57.055Z,10.07
2018-11-04T10:31:57.020Z,10.17
2018-11-04T10:32:56.992Z,10.17
2018-11-04T10:33:56.961Z,10.12
2018-11-04T10:34:56.932Z,10.06
2018-11-04T10:35:56.948Z,10.07
2018-11-04T10:36:56.873Z,10.12
2018-11-04T10:37:56.843Z,10.15
2018-11-04T10:38:56.813Z,10.17
2018-11-04T10:39:56.785Z,10.12
2018-11-04T10:40:56.756Z,10.14
2018-11-04T10:41:56.723Z,10.15
2018-11-04T10:42:56.698Z,10.09
2018-11-04T10:43:56.666Z,10.18
2018-11-04T10:44:56.638Z,10.14
2018-11-04T10:45:56.607Z,10.12
2018-11-04T10:46:56.578Z,10.07
2018-11-04T10:47:56.549Z,10.14
2018-11-04T10:48:56.519Z,10.10
2018-11-04T10:49:56.552Z,10.09
2018-11-04T10:50:56.460Z,10.07
2018-11-04T10:51:56.431Z,10.10
2018-11-04T10:52:56.401Z,10.09
2018-11-04T10:53:56.371Z,10.10
2018-11-04T10:54:56.341Z,10.10
2018-11-04T10:55:56.414Z,10.12
2018-11-04T10:56:56.281Z,10.15
2018-11-04T10:57:56.250Z,10.12
2018-11-04T10:58:56.224Z,10.10
2018-11-04T10:59:56.194Z,10.12
2018-11-04T11:00:56.165Z,10.10
2018-11-04T11:01:56.135Z,10.17
2018-11-04T11:02:56.106Z,10.18
2018-11-04T11:03:56.076Z,10.24
2018-11-04T11:04:56.049Z,10.24
2018-11-04T11:05:56.016Z,10.24
2018-11-04T11:06:56.548Z,10.22
2018-11-04T11:07:55.956Z,10.25
2018-11-04T11:08:55.931Z,10.33
2018-11-04T11:09:55.898Z,10.39
2018-11-04T11:10:55.906Z,10.36
2018-11-04T11:11:55.840Z,10.37
2018-11-04T11:12:55.810Z,10.39
2018-11-04T11:13:55.784Z,10.36
2018-11-04T11:14:55.749Z,10.34
2018-11-04T11:15:55.719Z,10.33
2018-11-04T11:16:55.692Z,10.32
2018-11-04T11:17:55.662Z,10.40
2018-11-04T11:18:55.633Z,10.39
2018-11-04T11:19:55.605Z,10.36
2018-11-04T11:20:55.574Z,10.36
2018-11-04T11:21:55.545Z,10.33
2018-11-04T11:22:55.695Z,10.30
2018-11-04T11:23:55.485Z,10.36
2018-11-04T11:24:55.455Z,10.37
2018-11-04T11:25:55.431Z,10.39
2018-11-04T11:26:55.399Z,10.37
2018-11-04T11:27:55.369Z,10.34
2018-11-04T11:28:55.338Z,10.37
2018-11-04T11:29:55.364Z,10.37
2018-11-04T11:30:55.280Z,10.42
2018-11-04T11:31:55.250Z,10.46
2018-11-04T11:32:55.223Z,10.37
2018-11-04T11:33:55.192Z,10.43
2018-11-04T11:34:55.161Z,10.53
2018-11-04T11:35:55.128Z,10.62
2018-11-04T11:36:55.100Z,10.60
2018-11-04T11:37:55.216Z,10.74
2018-11-04T11:38:55.041Z,10.73
2018-11-04T11:39:55.015Z,10.63
2018-11-04T11:40:54.995Z,10.68
2018-11-04T11:41:54.954Z,10.71
2018-11-04T11:42:54.924Z,10.71
2018-11-04T11:43:54.896Z,10.68
2018-11-04T11:44:54.936Z,10.70
2018-11-04T11:45:54.835Z,10.59
2018-11-04T11:46:54.807Z,10.65
2018-11-04T11:47:54.781Z,10.62
2018-11-04T11:48:54.748Z,10.59
2018-11-04T11:49:54.718Z,10.68
2018-11-04T11:50:54.689Z,10.66
2018-11-04T11:51:54.663Z,10.76
2018-11-04T11:52:54.631Z,10.66
2018-11-04T11:53:54.600Z,10.73
2018-11-04T11:54:54.571Z,10.66
2018-11-04T11:55:54.542Z,10.71
2018-11-04T11:56:54.513Z,10.78
2018-11-04T11:57:54.482Z,10.66
2018-11-04T11:58:54.452Z,10.76
2018-11-04T11:59:54.424Z,10.80
2018-11-04T12:00:54.400Z,10.73
2018-11-04T12:01:54.364Z,10.80
2018-11-04T12:02:54.336Z,10.74
2018-11-04T12:03:54.306Z,10.76
2018-11-04T12:04:54.276Z,10.73
2018-11-04T12:05:54.247Z,10.68
2018-11-04T12:06:54.220Z,10.80
2018-11-04T12:07:54.190Z,10.80
2018-11-04T12:08:54.160Z,10.77
2018-11-04T12:09:54.129Z,10.80
2018-11-04T12:10:54.101Z,10.71
2018-11-04T12:11:54.071Z,10.91
2018-11-04T12:12:54.043Z,10.86
2018-11-04T12:13:54.012Z,10.86
2018-11-04T12:14:53.987Z,10.83
2018-11-04T12:15:53.953Z,10.83
2018-11-04T12:16:53.929Z,10.86
2018-11-04T12:17:53.989Z,10.92
2018-11-04T12:18:53.866Z,10.92
2018-11-04T12:19:53.839Z,10.91
2018-11-04T12:20:53.810Z,10.86
2018-11-04T12:21:53.778Z,10.84
2018-11-04T12:22:53.748Z,10.84
2018-11-04T12:23:53.755Z,10.77
2018-11-04T12:24:53.689Z,10.71
2018-11-04T12:25:53.660Z,10.71
2018-11-04T12:26:53.699Z,10.73
2018-11-04T12:27:53.601Z,10.70
2018-11-04T12:28:53.573Z,10.80
2018-11-04T12:29:53.543Z,10.66
2018-11-04T12:30:54.059Z,10.89
2018-11-04T12:31:53.484Z,10.88
2018-11-04T12:32:53.454Z,10.89
2018-11-04T12:33:53.426Z,10.94
2018-11-04T12:34:53.399Z,10.91
2018-11-04T12:35:53.369Z,10.89
2018-11-04T12:36:53.340Z,10.89
2018-11-04T12:37:53.309Z,10.80
2018-11-04T12:38:53.279Z,10.88
2018-11-04T12:39:53.255Z,10.98
2018-11-04T12:40:53.221Z,10.94
2018-11-04T12:41:53.190Z,10.98
2018-11-04T12:42:53.163Z,10.92
2018-11-04T12:43:53.133Z,10.95
2018-11-04T12:44:53.103Z,10.92
2018-11-04T12:45:53.101Z,10.89
2018-11-04T12:46:53.045Z,10.88
2018-11-04T12:47:53.018Z,10.81
2018-11-04T12:48:52.987Z,10.83
2018-11-04T12:49:52.957Z,10.89
2018-11-04T12:50:52.929Z,10.78
2018-11-04T12:51:52.902Z,10.80
2018-11-04T12:52:52.871Z,10.89
2018-11-04T12:53:52.841Z,10.92
2018-11-04T12:54:52.810Z,10.95
2018-11-04T12:55:52.784Z,10.89
2018-11-04T12:56:52.753Z,10.94
2018-11-04T12:57:52.722Z,10.81
2018-11-04T12:58:52.695Z,10.77
2018-11-04T12:59:52.668Z,10.77
2018-11-04T13:00:52.636Z,10.70
2018-11-04T13:01:52.651Z,10.81
2018-11-04T13:02:52.576Z,10.73
2018-11-04T13:03:52.549Z,10.74
2018-11-04T13:04:52.522Z,10.71
2018-11-04T13:05:52.488Z,10.76
2018-11-04T13:06:52.463Z,10.70
2018-11-04T13:07:52.432Z,10.68
2018-11-04T13:08:52.402Z,10.73
2018-11-04T13:09:52.371Z,10.56
2018-11-04T13:10:52.344Z,10.68
2018-11-04T13:11:52.320Z,10.63
2018-11-04T13:12:52.286Z,10.71
2018-11-04T13:13:52.259Z,10.63
2018-11-04T13:14:52.226Z,10.71
2018-11-04T13:15:52.197Z,10.74
2018-11-04T13:16:52.165Z,10.84
2018-11-04T13:17:52.137Z,10.80
2018-11-04T13:18:52.111Z,10.84
2018-11-04T13:19:52.079Z,10.94
2018-11-04T13:20:52.048Z,10.98
2018-11-04T13:21:52.039Z,10.92
2018-11-04T13:22:51.990Z,10.83
2018-11-04T13:23:51.963Z,10.98
2018-11-04T13:24:51.930Z,10.98
2018-11-04T13:25:51.901Z,10.84
2018-11-04T13:26:51.905Z,10.95
2018-11-04T13:27:51.841Z,10.89
2018-11-04T13:28:51.846Z,10.84
2018-11-04T13:29:51.781Z,10.78